Time;durP1;ratioP1;P1;durP2;ratioP2;P2;SDS_P1;SDS_P2;PMS_P1;PMS_P2;Temp;Humidity;BMP_temperature;BMP_pressure;BME280_temperature;BME280_humidity;BME280_pressure;Samples;Min_cycle;Max_cycle;Signal;HPM_P1;HPM_P2
2022/08/12 00:43:47;;;;;;;3.00;2.30;;;25.90;34.20;;;26.25;26.63;98790.88;5030000;27;119901;-72
2022/08/12 00:46:32;;;;;;;5.13;2.93;;;25.80;34.20;;;26.23;26.59;98790.50;5032937;27;119052;-73
2022/08/12 00:49:00;;;;;;;7.53;2.37;;;25.80;34.40;;;26.20;26.45;98780.00;5033000;27;124088;-72
2022/08/12 00:54:15;;;;;;;2.90;2.60;;;25.80;34.60;;;26.13;26.83;98780.84;5032043;27;120355;-73
2022/08/12 00:56:42;;;;;;;5.23;2.90;;;25.70;34.60;;;26.13;26.88;98789.34;5026363;27;119481;-72
2022/08/12 00:59:09;;;;;;;3.50;2.67;;;25.70;34.70;;;26.13;27.28;98785.72;5026618;27;123499;-72
2022/08/12 01:01:36;;;;;;;3.63;2.00;;;25.70;34.90;;;26.14;27.41;98787.31;5036319;27;123839;-72
2022/08/12 01:12:31;;;;;;;2.17;1.87;;;25.70;35.30;;;26.07;27.11;98779.72;5027468;27;124390;-72
2022/08/12 01:15:00;;;;;;;3.77;2.30;;;25.70;35.40;;;26.09;27.38;98770.81;5028483;27;118693;-72
2022/08/12 01:17:28;;;;;;;2.70;2.23;;;25.70;35.60;;;26.10;27.36;98787.38;5032720;27;119322;-72
2022/08/12 01:19:59;;;;;;;4.27;2.20;;;25.70;35.70;;;26.11;27.69;98791.78;5024902;27;124480;-72
2022/08/12 01:22:37;;;;;;;4.17;2.80;;;25.70;35.80;;;26.10;27.80;98783.72;5028103;27;123653;-72
2022/08/12 01:25:12;;;;;;;2.13;1.93;;;25.70;35.80;;;26.10;27.45;98775.22;5040643;27;120692;-72
2022/08/12 01:27:40;;;;;;;3.73;2.30;;;25.70;36.00;;;26.09;27.42;98779.31;5026003;27;119892;-72
2022/08/12 01:30:10;;;;;;;4.97;2.80;;;25.60;35.90;;;26.07;27.47;98782.53;5025677;27;124938;-72
2022/08/12 01:32:40;;;;;;;2.40;2.10;;;25.60;35.90;;;26.07;27.87;98767.56;5025771;27;123602;-72
2022/08/12 01:35:14;;;;;;;2.80;2.17;;;25.70;36.10;;;26.06;27.94;98774.44;5026408;27;119296;-72
2022/08/12 01:38:05;;;;;;;4.03;2.40;;;25.60;36.10;;;26.02;27.52;98770.84;5031020;27;118809;-73
2022/08/12 01:40:35;;;;;;;2.77;1.93;;;25.60;36.30;;;25.99;28.21;98769.66;5032312;27;124491;-73
2022/08/12 01:43:09;;;;;;;3.20;2.30;;;25.50;36.20;;;25.98;27.73;98773.72;5024692;27;123997;-73
2022/08/12 01:45:46;;;;;;;3.60;2.30;;;25.50;36.30;;;25.95;27.86;98768.88;5032408;27;119721;-73
2022/08/12 01:48:52;;;;;;;5.30;2.10;;;25.50;36.30;;;25.90;27.92;98772.97;5027116;27;119050;-73
2022/08/12 01:51:41;;;;;;;2.33;2.03;;;25.50;36.50;;;25.88;28.10;98772.59;5036214;27;124059;-73
2022/08/12 01:54:17;;;;;;;3.30;2.30;;;25.50;36.70;;;25.88;28.21;98771.78;5034013;27;123924;-73
2022/08/12 01:56:50;;;;;;;3.87;2.40;;;25.50;36.80;;;25.84;28.08;98763.31;5024904;27;118976;-73
2022/08/12 01:59:59;;;;;;;3.10;2.33;;;25.40;36.80;;;25.77;28.32;98763.34;5031292;27;119011;-73
2022/08/12 02:02:56;;;;;;;2.37;1.93;;;25.40;36.90;;;25.74;28.64;98764.19;5033960;27;124096;-73
2022/08/12 02:12:11;;;;;;;2.30;2.10;;;25.30;37.20;;;25.61;28.37;98761.03;5022475;27;119575;-72
2022/08/12 02:15:11;;;;;;;2.60;2.20;;;25.30;37.20;;;25.55;28.72;98763.50;5028664;27;124917;-73
2022/08/12 02:18:02;;;;;;;5.43;2.87;;;25.20;37.30;;;25.54;29.01;98764.69;5037017;27;122985;-73
2022/08/12 02:20:59;;;;;;;3.63;2.70;;;25.20;37.50;;;25.50;29.16;98763.94;5037441;27;120027;-73
2022/08/12 02:23:27;;;;;;;7.07;2.50;;;25.10;37.60;;;25.48;29.14;98774.84;5023080;27;119890;-72
2022/08/12 02:26:08;;;;;;;3.53;2.33;;;25.10;37.70;;;25.45;28.79;98764.38;5027888;27;124461;-73
2022/08/12 02:28:37;;;;;;;3.80;2.70;;;25.10;37.80;;;25.44;29.30;98759.94;5026299;27;123158;-72
2022/08/12 02:31:07;;;;;;;2.57;2.10;;;25.00;38.50;;;25.41;29.17;98755.09;5036137;27;119243;-72
2022/08/12 02:33:36;;;;;;;3.07;2.27;;;25.00;38.00;;;25.39;29.39;98760.38;5027491;27;119174;-72
2022/08/12 02:36:04;;;;;;;4.63;2.17;;;25.00;38.10;;;25.38;29.45;98763.59;5039628;27;123246;-73
2022/08/12 02:38:31;;;;;;;4.00;2.30;;;25.00;38.30;;;25.35;29.44;98751.88;5028630;27;123842;-73
2022/08/12 02:41:03;;;;;;;2.37;2.10;;;24.90;38.20;;;25.34;29.47;98757.97;5030380;27;120146;-73
2022/08/12 02:43:59;;;;;;;2.50;2.10;;;24.90;38.30;;;25.27;29.70;98758.81;5029906;27;119102;-72
2022/08/12 02:46:31;;;;;;;2.73;2.23;;;24.90;38.40;;;25.27;29.87;98750.31;5026090;27;123818;-73
2022/08/12 02:49:05;;;;;;;2.37;2.17;;;24.90;38.50;;;25.24;29.87;98753.19;5036091;27;124353;-72
2022/08/12 02:51:34;;;;;;;3.60;1.90;;;24.80;38.50;;;25.19;29.82;98748.75;5023195;27;119361;-72
2022/08/12 02:54:03;;;;;;;5.33;2.00;;;24.80;38.50;;;25.14;29.69;98755.59;5026569;27;117556;-72
2022/08/12 02:56:30;;;;;;;3.43;2.60;;;24.80;38.60;;;25.11;30.01;98752.81;5007093;27;124708;-72
2022/08/12 02:58:59;;;;;;;2.40;2.10;;;24.70;38.60;;;25.08;29.95;98751.59;5021922;27;123615;-72
2022/08/12 03:01:34;;;;;;;2.63;2.13;;;24.70;38.80;;;25.06;30.26;98748.38;5017689;27;119167;-72
2022/08/12 03:04:06;;;;;;;2.87;2.20;;;24.70;38.90;;;25.03;30.29;98751.22;5028005;27;119747;-73
2022/08/12 03:07:01;;;;;;;2.13;1.93;;;24.60;39.00;;;25.00;30.16;98750.03;5026216;27;124682;-73
2022/08/12 03:09:33;;;;;;;2.37;2.07;;;24.60;39.10;;;24.98;30.39;98741.16;5021556;27;123172;-72
2022/08/12 03:12:08;;;;;;;2.70;2.03;;;24.60;39.20;;;24.97;30.50;98753.69;5028658;27;120286;-72
2022/08/12 03:14:37;;;;;;;5.10;2.37;;;24.50;39.20;;;24.96;30.23;98746.44;5021138;27;120412;-72
2022/08/12 03:17:42;;;;;;;3.23;2.17;;;24.50;39.30;;;24.91;30.21;98747.66;5006303;27;124129;-72
2022/08/12 03:20:15;;;;;;;1.83;1.63;;;24.50;39.40;;;24.88;30.54;98745.66;5010144;27;122757;-72
2022/08/12 03:22:44;;;;;;;2.80;2.10;;;24.50;39.40;;;24.84;30.64;98747.69;5030071;27;119239;-73
2022/08/12 03:25:23;;;;;;;4.00;2.33;;;24.40;39.40;;;24.79;30.61;98750.13;5031264;27;119585;-72
2022/08/12 03:27:54;;;;;;;4.00;2.00;;;24.40;39.50;;;24.71;30.84;98746.50;5031678;27;123533;-72
2022/08/12 03:30:32;;;;;;;2.50;2.07;;;24.30;39.60;;;24.68;30.59;98759.44;5031460;27;123579;-72
2022/08/12 03:33:01;;;;;;;3.73;2.10;;;24.20;39.80;;;24.66;30.92;98763.88;5024016;27;119674;-73
2022/08/12 03:35:32;;;;;;;3.40;2.50;;;24.20;39.90;;;24.63;31.16;98759.84;5029066;27;118734;-71
2022/08/12 03:38:07;;;;;;;3.73;2.90;;;24.20;40.00;;;24.62;30.86;98758.25;5039677;27;124177;-71
2022/08/12 04:00:52;;;;;;;6.63;2.23;;;24.10;40.50;;;24.54;31.46;98750.22;5029224;27;124619;-71
2022/08/12 04:06:08;;;;;;;2.50;2.20;;;24.10;40.60;;;24.53;31.32;98766.38;5028899;27;120452;-71
2022/08/12 04:08:35;;;;;;;2.40;1.80;;;24.10;40.60;;;24.53;31.59;98763.53;5027101;27;119886;-71
2022/08/12 04:13:47;;;;;;;2.50;2.23;;;24.10;40.60;;;24.53;31.21;98757.88;5029744;27;124460;-71
2022/08/12 04:16:16;;;;;;;2.23;1.80;;;24.10;40.50;;;24.50;31.40;98761.50;5026407;27;119250;-70
2022/08/12 04:18:43;;;;;;;4.10;2.17;;;24.10;40.60;;;24.50;31.07;98763.53;5025561;27;118786;-71
2022/08/12 04:21:09;;;;;;;3.50;2.27;;;24.00;40.50;;;24.48;31.29;98763.97;5027158;27;123999;-71
2022/08/12 04:23:41;;;;;;;3.63;2.30;;;24.00;40.50;;;24.46;31.48;98755.06;5027440;27;122951;-71
2022/08/12 04:26:08;;;;;;;3.87;2.47;;;24.00;40.50;;;24.42;31.35;98760.72;5025800;27;119298;-72
2022/08/12 04:28:35;;;;;;;3.70;2.27;;;24.00;40.50;;;24.39;31.21;98752.22;5028487;27;118985;-71
2022/08/12 04:31:03;;;;;;;2.17;1.93;;;23.90;40.50;;;24.35;31.32;98748.63;5026729;27;124257;-71
2022/08/12 04:33:31;;;;;;;2.37;2.03;;;23.90;40.50;;;24.38;31.16;98759.09;5034254;27;123897;-71
2022/08/12 04:35:57;;;;;;;2.60;1.97;;;23.90;40.60;;;24.38;31.51;98761.91;5030736;27;119224;-71
2022/08/12 04:38:24;;;;;;;5.37;2.30;;;23.90;40.70;;;24.36;31.42;98755.88;5026616;27;118953;-72
2022/08/12 04:40:52;;;;;;;2.63;1.93;;;23.90;40.70;;;24.33;31.82;98757.47;5024916;27;124359;-71
2022/08/12 04:43:18;;;;;;;3.90;2.20;;;23.90;40.80;;;24.32;31.56;98758.72;5029456;27;123007;-71
2022/08/12 04:45:48;;;;;;;6.10;1.73;;;23.90;40.90;;;24.35;31.62;98762.75;5028535;27;118337;-72
2022/08/12 04:48:14;;;;;;;3.43;1.80;;;23.80;41.00;;;24.36;31.70;98761.50;5038744;27;117999;-72
2022/08/12 04:50:43;;;;;;;7.00;2.50;;;23.80;41.10;;;24.36;31.84;98761.50;5030444;27;124046;-71
2022/08/12 04:53:11;;;;;;;6.17;2.30;;;23.80;41.30;;;24.37;31.98;98763.16;5027917;27;124300;-71
2022/08/12 04:55:41;;;;;;;5.20;2.30;;;23.80;41.60;;;24.33;32.14;98767.97;5028408;27;120208;-72
2022/08/12 04:58:09;;;;;;;5.17;2.70;;;23.80;41.80;;;24.33;32.46;98767.97;5028992;27;120214;-72
2022/08/12 05:00:36;;;;;;;4.30;2.70;;;23.80;41.90;;;24.33;32.81;98765.16;5028783;27;123513;-72
2022/08/12 05:03:05;;;;;;;5.07;2.93;;;23.80;41.90;;;24.29;32.46;98768.00;5042849;27;123332;-72
2022/08/12 05:05:33;;;;;;;3.43;2.40;;;25.00;43.10;;;24.29;32.54;98764.34;5045882;27;118510;-72
2022/08/12 05:08:00;;;;;;;5.80;2.70;;;23.80;42.00;;;24.28;32.68;98757.88;5036634;27;118967;-71
2022/08/12 05:10:26;;;;;;;3.07;2.30;;;23.80;42.10;;;24.31;32.74;98759.09;5038807;27;123942;-72
2022/08/12 05:12:59;;;;;;;6.10;2.50;;;23.80;42.20;;;24.33;32.44;98762.34;5040691;27;124236;-72
2022/08/12 05:15:26;;;;;;;2.77;1.70;;;23.80;42.30;;;24.34;32.55;98770.41;5034201;27;119645;-72
2022/08/12 05:17:54;;;;;;;7.80;2.10;;;23.80;42.30;;;24.30;32.69;98765.97;5033225;27;118941;-72
2022/08/12 05:20:21;;;;;;;3.77;2.13;;;23.70;42.10;;;24.30;32.34;98772.41;5044437;27;124097;-72
2022/08/12 05:22:49;;;;;;;5.53;2.77;;;23.70;42.20;;;24.30;32.36;98777.28;5048697;27;123792;-72
2022/08/12 05:25:15;;;;;;;3.50;2.53;;;23.70;42.20;;;24.33;32.27;98773.63;5031088;27;119373;-72
2022/08/12 05:27:44;;;;;;;4.13;2.00;;;23.70;42.10;;;24.32;32.25;98772.81;5046059;27;118870;-72
2022/08/12 05:30:12;;;;;;;4.43;2.50;;;23.70;42.10;;;24.30;32.13;98777.28;5045618;27;124510;-72
2022/08/12 05:32:38;;;;;;;4.00;2.30;;;23.70;42.00;;;24.24;32.25;98783.31;5046223;27;123662;-71
2022/08/12 05:35:06;;;;;;;3.00;2.10;;;23.60;42.00;;;24.24;32.29;98768.41;5038549;27;119387;-72
2022/08/12 05:37:33;;;;;;;3.90;2.43;;;23.60;42.10;;;24.22;32.47;98787.75;5042323;27;119039;-72
2022/08/12 05:40:02;;;;;;;5.60;2.43;;;23.60;42.10;;;24.20;32.32;98790.97;5038318;27;124715;-72
2022/08/12 05:42:30;;;;;;;3.73;2.57;;;23.60;42.20;;;24.17;32.56;98793.81;5045041;27;122468;-72
2022/08/12 05:44:57;;;;;;;4.30;2.40;;;23.50;42.90;;;24.17;32.33;98799.47;5032818;27;120652;-72
2022/08/12 05:47:23;;;;;;;2.97;2.27;;;23.50;42.10;;;24.17;32.39;98803.09;5026329;27;118843;-72
2022/08/12 05:49:50;;;;;;;5.77;2.30;;;23.60;42.10;;;24.18;32.22;98807.53;5038892;27;124321;-72
2022/08/12 05:52:16;;;;;;;6.40;2.80;;;23.60;42.10;;;24.21;32.37;98805.91;5036542;27;123946;-72
2022/08/12 05:54:43;;;;;;;5.53;2.50;;;23.60;42.10;;;24.21;32.43;98809.53;5033062;27;119250;-72
2022/08/12 05:57:11;;;;;;;8.17;2.57;;;23.60;42.20;;;24.20;32.42;98809.94;5041686;27;118819;-72
2022/08/12 05:59:40;;;;;;;3.30;2.40;;;23.60;42.10;;;24.18;32.51;98818.81;5042063;27;123322;-72
2022/08/12 06:02:09;;;;;;;3.80;2.03;;;23.60;42.20;;;24.21;32.30;98818.00;5042759;27;123713;-72
2022/08/12 06:04:36;;;;;;;2.27;2.00;;;23.60;42.20;;;24.25;32.31;98807.50;5043668;27;118565;-72
2022/08/12 06:07:06;;;;;;;3.63;2.53;;;23.60;42.10;;;24.34;32.45;98820.41;5032601;27;119098;-72
2022/08/12 06:09:33;;;;;;;3.27;2.30;;;23.70;42.10;;;24.42;32.02;98807.91;5041210;27;124368;-72
2022/08/12 06:12:00;;;;;;;2.53;1.93;;;23.80;42.80;;;24.49;32.10;98818.41;5029063;27;124602;-72
2022/08/12 06:14:26;;;;;;;3.27;2.30;;;23.80;41.90;;;24.56;31.94;98809.94;5048088;27;119479;-72
2022/08/12 06:16:54;;;;;;;7.53;2.70;;;23.90;41.90;;;24.61;31.83;98809.50;5042963;27;119010;-72
2022/08/12 06:19:20;;;;;;;3.00;2.20;;;23.90;42.00;;;24.68;31.91;98806.69;5039430;27;125184;-72
2022/08/12 06:21:47;;;;;;;7.20;2.37;;;24.00;42.00;;;24.73;32.01;98820.38;5042994;27;123708;-72
2022/08/12 06:24:18;;;;;;;3.50;2.20;;;24.10;42.00;;;24.80;31.63;98816.75;5039246;27;119916;-72
2022/08/12 06:26:45;;;;;;;5.07;2.90;;;24.10;41.90;;;24.87;31.89;98816.72;5032251;27;119695;-72
2022/08/12 06:29:18;;;;;;;4.80;2.83;;;24.20;41.90;;;24.94;31.62;98818.72;5040524;27;123402;-72
2022/08/12 06:31:49;;;;;;;2.80;2.50;;;24.20;41.90;;;24.99;31.57;98813.44;5044000;27;124076;-72
2022/08/12 06:34:18;;;;;;;3.20;2.53;;;24.30;41.90;;;25.10;31.63;98817.03;5039001;27;120357;-73
2022/08/12 06:36:46;;;;;;;5.23;2.53;;;24.40;41.80;;;25.19;31.41;98810.16;5044885;27;120528;-73
2022/08/12 06:39:14;;;;;;;3.47;2.50;;;24.50;41.70;;;25.26;30.96;98812.97;5032007;27;124231;-73
2022/08/12 06:44:26;;;;;;;5.43;2.97;;;24.60;41.40;;;25.35;30.79;98810.50;5045775;27;119843;-73
2022/08/12 06:46:53;;;;;;;12.00;5.27;;;24.70;41.30;;;25.39;30.76;98808.47;5038541;27;118289;-72
2022/08/12 06:49:19;;;;;;;11.53;4.70;;;24.70;41.20;;;25.41;30.98;98813.69;5038425;27;124180;-72
2022/08/12 06:51:46;;;;;;;7.03;3.50;;;24.70;41.20;;;25.44;30.81;98805.19;5040330;27;123464;-73
2022/08/12 06:54:12;;;;;;;5.60;2.97;;;24.70;41.10;;;25.51;30.86;98810.00;5040837;27;120205;-73
2022/08/12 06:56:39;;;;;;;7.13;3.20;;;24.80;41.20;;;25.60;30.61;98809.53;5037394;27;118873;-72
2022/08/12 06:59:05;;;;;;;6.67;2.90;;;24.90;41.20;;;25.69;30.44;98807.06;5037954;27;123872;-73
2022/08/12 07:01:35;;;;;;;6.13;3.27;;;24.90;41.10;;;25.76;30.65;98804.16;5034420;27;123698;-74
2022/08/12 07:04:02;;;;;;;4.40;1.90;;;25.00;41.00;;;25.84;30.27;98819.91;5037744;27;118954;-74
2022/08/12 07:06:28;;;;;;;5.57;2.50;;;25.00;40.80;;;25.91;30.62;98814.22;5044016;27;118993;-73
2022/08/12 07:08:55;;;;;;;4.60;2.70;;;25.10;40.70;;;25.98;30.09;98817.00;5044145;27;124560;-73
2022/08/12 07:11:22;;;;;;;3.97;2.30;;;25.20;40.60;;;26.07;29.51;98810.06;5043094;27;122997;-73
2022/08/12 07:13:51;;;;;;;2.60;1.83;;;25.30;40.30;;;26.12;29.61;98818.09;5049246;27;119334;-74
2022/08/12 07:16:20;;;;;;;3.13;2.50;;;25.40;40.20;;;26.18;29.54;98813.59;5020489;27;97066;-73
2022/08/12 07:18:52;;;;;;;3.33;2.50;;;25.50;40.10;;;26.18;29.69;98813.59;5046916;27;124147;-72
2022/08/12 07:21:19;;;;;;;5.80;3.20;;;25.40;40.00;;;26.20;29.85;98820.47;5046984;27;124373;-72
2022/08/12 07:23:45;;;;;;;6.43;3.57;;;25.50;40.00;;;26.25;29.91;98807.06;5042576;27;119943;-72
2022/08/12 07:26:17;;;;;;;4.83;2.60;;;25.50;40.00;;;26.32;29.54;98813.47;5042015;27;119936;-72
2022/08/12 07:28:46;;;;;;;2.50;2.07;;;25.60;40.00;;;26.41;29.21;98807.31;5043217;27;124214;-73
2022/08/12 07:31:13;;;;;;;3.60;2.40;;;25.70;39.80;;;26.52;29.45;98821.41;5042932;27;123881;-73
2022/08/12 07:33:41;;;;;;;3.53;2.17;;;25.70;39.60;;;26.55;29.23;98814.91;5037648;27;119689;-73
2022/08/12 07:36:15;;;;;;;2.73;2.00;;;25.70;39.40;;;26.54;29.18;98808.41;5034624;27;118426;-73
2022/08/12 07:38:47;;;;;;;4.17;2.10;;;25.80;39.30;;;26.57;28.96;98806.78;5046218;27;124396;-73
2022/08/12 07:41:27;;;;;;;4.90;2.37;;;25.80;39.00;;;26.61;29.08;98804.72;5040123;27;124379;-73
2022/08/12 07:43:58;;;;;;;3.13;2.00;;;25.90;39.10;;;26.63;29.06;98805.13;5043220;27;119862;-73
2022/08/12 07:46:35;;;;;;;6.53;2.67;;;25.90;39.00;;;26.64;28.89;98799.00;5043580;27;118215;-73
2022/08/12 07:49:12;;;;;;;4.20;2.50;;;25.90;38.70;;;26.65;28.54;98794.13;5043381;27;123291;-73
2022/08/12 07:51:41;;;;;;;6.00;2.80;;;25.90;38.80;;;26.66;28.77;98802.22;5035123;27;123465;-73
2022/08/12 07:54:08;;;;;;;3.93;2.23;;;25.90;38.80;;;26.69;28.86;98796.94;5044515;27;119640;-72
2022/08/12 07:56:37;;;;;;;8.60;2.47;;;25.90;38.80;;;26.73;28.48;98804.16;5041939;27;119649;-73
2022/08/12 07:59:05;;;;;;;3.20;2.60;;;26.00;38.80;;;26.81;28.46;98793.56;5040911;27;123863;-73
2022/08/12 08:01:31;;;;;;;5.77;2.40;;;26.00;38.70;;;26.87;28.43;98795.53;5042220;27;124436;-73
2022/08/12 08:06:44;;;;;;;2.53;2.03;;;26.10;38.50;;;26.91;28.64;98789.81;5040617;27;120010;-73
2022/08/12 08:09:14;;;;;;;2.90;2.17;;;26.20;38.70;;;26.97;28.19;98784.47;5036603;27;124137;-73
2022/08/12 08:14:30;;;;;;;2.70;2.10;;;26.20;38.30;;;27.03;28.66;98789.25;5044087;27;120797;-73
2022/08/12 08:16:59;;;;;;;4.53;2.03;;;26.30;38.40;;;27.10;28.18;98785.53;5041243;27;120085;-73
2022/08/12 08:19:27;;;;;;;3.63;2.60;;;26.30;38.30;;;27.11;28.25;98775.81;5043563;27;123815;-73
2022/08/12 08:21:55;;;;;;;5.80;2.17;;;26.40;38.00;;;27.12;28.33;98783.06;5037509;27;124280;-73
2022/08/12 08:24:26;;;;;;;4.23;2.13;;;26.40;38.20;;;27.12;28.01;98777.41;5044557;27;118272;-73
2022/08/12 08:26:57;;;;;;;2.33;1.87;;;26.40;37.60;;;27.12;27.55;98790.78;5043227;27;119404;-73
2022/08/12 08:29:25;;;;;;;3.27;2.20;;;26.40;37.50;;;27.16;27.85;98778.13;5036650;27;126084;-73
2022/08/12 08:31:59;;;;;;;4.53;2.07;;;26.40;37.40;;;27.22;27.38;98775.69;5043836;27;123666;-73
2022/08/12 08:34:28;;;;;;;2.97;1.87;;;26.50;37.30;;;27.26;27.83;98788.56;5030879;27;120501;-73
2022/08/12 08:36:55;;;;;;;2.77;2.10;;;26.50;37.30;;;27.33;27.69;98779.19;5049003;27;119856;-73
2022/08/12 08:39:26;;;;;;;2.33;1.83;;;26.60;37.10;;;27.34;27.52;98780.78;5038109;27;124764;-73
2022/08/12 08:44:40;;;;;;;3.20;2.37;;;26.70;36.90;;;27.41;27.25;98775.00;5044917;27;119872;-73
2022/08/12 08:47:09;;;;;;;2.37;1.80;;;26.70;36.70;;;27.41;26.41;98777.84;5035853;27;119075;-76
2022/08/12 08:49:37;;;;;;;3.70;2.07;;;26.70;36.10;;;27.41;26.61;98765.69;5034362;27;123807;-74
2022/08/12 08:52:09;;;;;;;3.43;2.27;;;26.70;36.30;;;27.40;26.86;98764.06;5037237;27;122849;-72
2022/08/12 08:54:36;;;;;;;2.97;2.13;;;26.70;36.30;;;27.42;26.68;98772.97;5041129;27;120242;-74
2022/08/12 08:57:07;;;;;;;2.53;2.00;;;26.70;36.00;;;27.44;26.52;98770.50;5042024;27;118930;-72
2022/08/12 08:59:33;;;;;;;3.80;2.13;;;26.70;35.80;;;27.47;26.23;98769.66;5039594;27;124494;-73
2022/08/12 09:02:01;;;;;;;4.73;2.27;;;26.80;35.80;;;27.52;26.33;98761.47;5035451;27;123853;-74
2022/08/12 09:04:27;;;;;;;4.07;2.03;;;26.80;35.50;;;27.53;26.40;98773.59;5043872;27;119395;-73
2022/08/12 09:06:57;;;;;;;1.90;1.70;;;26.90;35.40;;;27.56;26.02;98775.59;5046723;27;120009;-72
2022/08/12 09:09:24;;;;;;;2.80;2.03;;;26.90;35.30;;;27.63;25.98;98769.03;5043163;27;124520;-74
2022/08/12 09:14:35;;;;;;;3.73;2.10;;;27.00;34.70;;;27.70;25.35;98775.41;5045071;27;119165;-72
2022/08/12 09:17:02;;;;;;;2.47;1.93;;;27.00;34.30;;;27.74;25.38;98767.59;5043784;27;118230;-73
2022/08/12 09:19:29;;;;;;;3.77;2.33;;;27.10;34.50;;;27.80;25.75;98767.13;5033265;27;124449;-73
2022/08/12 09:21:56;;;;;;;8.57;2.20;;;27.20;34.40;;;27.82;25.55;98759.81;5035753;27;124201;-74
2022/08/12 09:24:23;;;;;;;4.03;2.27;;;27.20;34.00;;;27.86;25.24;98759.75;5044687;27;119275;-74
2022/08/12 09:26:49;;;;;;;2.90;1.93;;;27.20;33.80;;;27.86;25.32;98769.09;5042747;27;118801;-76
2022/08/12 09:29:20;;;;;;;5.00;1.97;;;27.20;33.70;;;27.88;24.66;98757.28;5023687;27;123480;-73
2022/08/12 09:31:51;;;;;;;4.37;1.67;;;27.30;33.40;;;27.92;23.91;98760.88;5032700;27;122641;-74
2022/08/12 09:34:18;;;;;;;2.47;1.67;;;27.30;32.50;;;27.95;23.73;98760.03;5042785;27;119838;-73
2022/08/12 09:36:45;;;;;;;14.17;2.03;;;27.40;32.20;;;27.99;23.64;98755.06;5038044;27;118158;-73
2022/08/12 09:39:12;;;;;;;2.53;1.70;;;27.40;32.80;;;28.05;24.02;98747.69;5044096;27;123595;-74
2022/08/12 09:41:44;;;;;;;2.23;1.83;;;27.40;32.10;;;28.10;23.81;98743.53;5041202;27;122931;-73
2022/08/12 09:46:57;;;;;;;3.37;2.13;;;27.50;32.20;;;28.18;24.06;98745.81;5028866;27;119704;-72
2022/08/12 09:49:23;;;;;;;3.40;1.73;;;27.50;32.30;;;28.24;23.94;98743.28;5025451;27;124486;-73
2022/08/12 09:51:50;;;;;;;3.93;1.97;;;27.60;32.20;;;28.28;23.86;98726.16;5025201;27;123765;-73
2022/08/12 09:54:17;;;;;;;3.33;2.47;;;27.70;32.70;;;28.29;23.50;98728.59;5033690;27;121185;-72
2022/08/12 09:56:46;;;;;;;3.03;1.90;;;27.70;31.60;;;28.31;23.52;98728.13;5033136;27;120065;-76
2022/08/12 09:59:14;;;;;;;2.43;1.67;;;27.70;31.60;;;28.33;23.66;98723.63;5032052;27;124204;-72
2022/08/12 10:01:41;;;;;;;2.13;1.93;;;27.70;31.60;;;28.39;23.59;98716.19;5045754;27;124205;-72
2022/08/12 10:04:09;;;;;;;4.13;2.10;;;27.80;31.80;;;28.43;23.71;98716.16;5033107;27;119418;-72
2022/08/12 10:06:36;;;;;;;2.20;1.97;;;27.80;31.50;;;28.45;23.74;98713.66;5027066;27;118968;-74
2022/08/12 10:09:08;;;;;;;6.70;2.00;;;27.90;31.80;;;28.49;23.52;98713.63;5023790;27;124055;-72
2022/08/12 10:14:21;;;;;;;2.23;2.03;;;27.90;31.20;;;28.49;23.50;98705.88;5041694;27;120039;-75
2022/08/12 10:16:48;;;;;;;4.17;2.50;;;27.90;31.50;;;28.50;23.58;98692.47;5044182;27;119046;-74
2022/08/12 10:19:17;;;;;;;2.87;1.80;;;27.90;31.30;;;28.54;23.52;98694.00;5041026;27;124098;-74
2022/08/12 10:21:44;;;;;;;2.23;2.00;;;27.90;31.50;;;28.57;23.29;98693.13;5040914;27;123896;-74
2022/08/12 10:24:21;;;;;;;5.73;2.10;;;28.00;31.10;;;28.54;23.08;98694.00;5040773;27;119379;-73
2022/08/12 10:30:07;;;;;;;2.90;2.13;;;27.90;31.10;;;28.50;23.57;98681.91;5039918;27;125540;-73
2022/08/12 10:32:26;;;;;;;2.50;1.47;;;27.90;31.20;;;28.52;23.56;98684.31;5039207;27;124029;-73
2022/08/12 10:34:53;;;;;;;4.50;1.90;;;27.90;31.40;;;28.58;23.36;98674.03;5040350;27;118193;-74
2022/08/12 10:37:21;;;;;;;3.70;2.30;;;28.00;31.50;;;28.63;23.32;98676.38;5040299;27;118977;-72
2022/08/12 10:39:47;;;;;;;2.40;2.00;;;28.00;31.50;;;28.69;23.54;98685.19;5030487;27;124357;-73
2022/08/12 10:45:07;;;;;;;3.50;2.20;;;28.20;31.60;;;28.77;23.35;98678.09;5038362;27;120913;-74
2022/08/12 10:47:36;;;;;;;3.87;2.00;;;28.20;31.40;;;28.77;23.48;98678.91;5041983;27;120055;-75
2022/08/12 10:50:06;;;;;;;2.43;2.03;;;28.20;31.50;;;28.83;23.41;98676.38;5031783;27;124392;-74
2022/08/12 10:52:33;;;;;;;2.53;1.70;;;28.20;31.40;;;28.89;23.25;98673.81;5027366;27;123392;-73
2022/08/12 10:55:00;;;;;;;2.47;2.00;;;28.30;31.40;;;28.94;23.10;98676.94;5028482;27;119332;-74
2022/08/12 10:57:26;;;;;;;2.27;1.70;;;28.40;31.00;;;28.98;23.18;98671.94;5028979;27;119369;-73
2022/08/12 10:59:55;;;;;;;3.60;2.00;;;28.40;30.70;;;29.04;22.55;98670.25;5036513;27;124071;-74
2022/08/12 11:02:25;;;;;;;4.43;1.60;;;28.50;30.40;;;29.05;22.19;98657.59;5033412;27;123029;-74
2022/08/12 11:04:57;;;;;;;2.20;1.70;;;28.50;29.90;;;29.08;22.37;98655.13;5038724;27;119162;-76
2022/08/12 11:07:25;;;;;;;2.70;1.83;;;28.50;30.00;;;29.12;22.42;98664.38;5026674;27;118944;-72
2022/08/12 11:09:52;;;;;;;7.10;1.80;;;28.60;30.70;;;29.23;22.43;98664.91;5028601;27;124518;-74
2022/08/12 11:12:19;;;;;;;3.30;1.80;;;28.60;30.20;;;29.33;22.37;98655.31;5033715;27;124050;-74
2022/08/12 11:14:45;;;;;;;5.63;1.77;;;28.70;30.10;;;29.41;22.06;98656.75;5046959;27;119323;-73
2022/08/12 11:17:13;;;;;;;3.20;2.10;;;28.80;29.90;;;29.46;21.99;98653.38;5037029;27;118790;-72
2022/08/12 11:19:42;;;;;;;3.93;1.97;;;28.90;29.90;;;29.52;21.90;98643.03;5035245;27;124316;-72
2022/08/12 11:22:10;;;;;;;1.90;1.73;;;28.90;29.70;;;29.59;21.91;98638.44;5034501;27;124058;-73
2022/08/12 11:24:37;;;;;;;3.83;2.13;;;29.00;29.70;;;29.66;21.94;98643.97;5036898;27;118954;-77
2022/08/12 11:27:06;;;;;;;4.53;2.23;;;27.90;29.00;;;29.71;21.93;98640.59;5040768;27;118914;-72
2022/08/12 11:29:35;;;;;;;2.43;1.90;;;29.10;29.50;;;29.80;21.67;98646.47;5031729;27;124166;-73
2022/08/12 11:32:02;;;;;;;4.03;1.70;;;29.20;29.30;;;29.87;21.19;98645.47;5043860;27;123803;-74
2022/08/12 11:34:29;;;;;;;3.50;1.90;;;29.20;29.10;;;29.92;21.34;98639.22;5043677;27;119064;-73
2022/08/12 11:37:06;;;;;;;4.07;2.17;;;29.30;29.70;;;30.00;21.17;98631.28;5037173;27;120370;-75
2022/08/12 11:39:33;;;;;;;3.50;1.67;;;29.40;28.80;;;30.07;21.07;98631.09;5037919;27;123959;-73
2022/08/12 11:42:01;;;;;;;2.90;2.03;;;29.50;28.80;;;30.10;20.58;98627.34;5043692;27;123846;-72
2022/08/12 11:44:27;;;;;;;2.03;1.83;;;29.50;28.30;;;30.09;20.69;98637.13;5037397;27;119282;-74
2022/08/12 11:46:54;;;;;;;2.13;1.40;;;29.50;28.30;;;30.14;20.78;98628.88;5038675;27;119447;-73
2022/08/12 11:49:26;;;;;;;3.67;1.90;;;29.50;28.30;;;30.21;20.35;98630.69;5044178;27;124398;-75
2022/08/12 11:51:52;;;;;;;2.00;1.80;;;29.60;28.30;;;30.29;20.52;98615.03;5045286;27;122555;-74
2022/08/12 11:54:19;;;;;;;4.20;1.60;;;29.70;28.20;;;30.35;20.45;98613.22;5042769;27;119297;-74
2022/08/12 11:56:46;;;;;;;2.27;1.50;;;29.70;27.90;;;30.45;20.01;98614.16;5049361;27;119081;-74
2022/08/12 11:59:12;;;;;;;2.70;1.90;;;29.80;27.90;;;30.53;19.65;98611.91;5040664;27;123250;-74
2022/08/12 12:01:39;;;;;;;2.80;1.70;;;29.90;27.50;;;30.62;19.74;98614.09;5032157;27;123846;-74
2022/08/12 12:04:05;;;;;;;2.83;1.60;;;29.90;27.70;;;30.75;19.44;98618.56;5033476;27;119201;-73
2022/08/12 12:06:32;;;;;;;3.10;1.90;;;30.10;27.40;;;30.86;19.04;98606.03;5048162;27;118688;-74
2022/08/12 12:08:58;;;;;;;3.40;1.60;;;30.20;27.00;;;30.94;19.27;98613.91;5043032;27;123457;-74
2022/08/12 12:11:25;;;;;;;1.93;1.30;;;30.20;26.70;;;31.03;18.74;98599.78;5039574;27;123844;-74
2022/08/12 12:13:51;;;;;;;4.00;2.23;;;30.30;26.50;;;31.11;18.85;98611.78;5045349;27;119495;-75
2022/08/12 12:16:18;;;;;;;2.20;1.80;;;30.40;26.70;;;31.23;19.26;98601.59;5040609;27;119359;-74